createdAt,value
2019-06-20T00:01:18.952Z,100455.66
2019-06-20T00:03:47.335Z,100448.56
2019-06-20T00:06:15.774Z,100443.84
2019-06-20T00:08:44.163Z,100440.47
2019-06-20T00:11:12.560Z,100436.73
2019-06-20T00:13:40.980Z,100433.13
2019-06-20T00:16:10.375Z,100446.16
2019-06-20T00:18:38.970Z,100450.75
2019-06-20T00:21:11.695Z,100446.77
2019-06-20T00:23:40.169Z,100442.95
2019-06-20T00:26:12.258Z,100449.09
2019-06-20T00:28:40.695Z,100445.65
2019-06-20T00:31:09.361Z,100456.12
2019-06-20T00:33:37.964Z,100462.34
2019-06-20T00:36:08.977Z,100456.89
2019-06-20T00:38:37.380Z,100444.47
2019-06-20T00:41:05.789Z,100445.13
2019-06-20T00:43:34.186Z,100437.86
2019-06-20T00:46:02.617Z,100432.05
2019-06-20T00:48:31.020Z,100425.30
2019-06-20T00:51:01.515Z,100423.34
2019-06-20T00:53:29.984Z,100424.56
2019-06-20T00:55:58.397Z,100413.05
2019-06-20T00:58:26.810Z,100408.55
2019-06-20T01:00:55.219Z,100414.09
2019-06-20T01:03:23.625Z,100410.36
2019-06-20T01:05:52.039Z,100407.73
2019-06-20T01:08:20.443Z,100409.00
2019-06-20T01:10:48.848Z,100412.37
2019-06-20T01:13:32.656Z,100401.44
2019-06-20T01:15:47.468Z,100395.98
2019-06-20T01:18:15.885Z,100397.77
2019-06-20T01:20:44.284Z,100395.84
2019-06-20T01:23:12.717Z,100390.47
2019-06-20T01:25:43.029Z,100397.16
2019-06-20T01:28:11.507Z,100396.55
2019-06-20T01:30:39.929Z,100397.56
2019-06-20T01:33:08.337Z,100390.11
2019-06-20T01:35:36.739Z,100395.48
2019-06-20T01:38:05.608Z,100397.42
2019-06-20T01:40:35.066Z,100396.08
2019-06-20T01:43:03.490Z,100395.72
2019-06-20T01:45:31.886Z,100401.44
2019-06-20T01:48:00.310Z,100397.34
2019-06-20T01:50:29.772Z,100390.27
2019-06-20T01:52:58.182Z,100380.47
2019-06-20T01:55:29.063Z,100379.46
2019-06-20T01:57:57.490Z,100376.27
2019-06-20T02:00:31.368Z,100371.47
2019-06-20T02:02:59.804Z,100357.05
2019-06-20T02:05:28.278Z,100352.71
2019-06-20T02:07:56.707Z,100367.20
2019-06-20T02:10:25.118Z,100379.74
2019-06-20T02:12:53.543Z,100381.59
2019-06-20T02:15:21.931Z,100376.67
2019-06-20T02:17:50.352Z,100383.39
2019-06-20T02:20:31.297Z,100382.83
2019-06-20T02:22:59.787Z,100377.88
2019-06-20T02:25:30.378Z,100384.14
2019-06-20T02:27:58.780Z,100390.86
2019-06-20T02:30:27.419Z,100385.36
2019-06-20T02:32:55.920Z,100394.73
2019-06-20T02:35:24.616Z,100397.46
2019-06-20T02:37:53.017Z,100399.69
2019-06-20T02:40:21.579Z,100401.98
2019-06-20T02:42:50.186Z,100404.57
2019-06-20T02:45:23.026Z,100401.77
2019-06-20T02:47:51.424Z,100404.45
2019-06-20T02:50:20.184Z,100403.58
2019-06-20T02:52:48.611Z,100396.77
2019-06-20T02:55:17.360Z,100398.42
2019-06-20T02:57:45.770Z,100380.52
2019-06-20T03:00:14.721Z,100409.10
2019-06-20T03:02:43.119Z,100418.98
2019-06-20T03:05:11.872Z,100416.14
2019-06-20T03:07:40.303Z,100414.09
2019-06-20T03:10:09.121Z,100418.79
2019-06-20T03:12:37.578Z,100411.45
2019-06-20T03:15:06.711Z,100416.44
2019-06-20T03:17:38.916Z,100419.25
2019-06-20T03:20:09.621Z,100415.95
2019-06-20T03:22:38.105Z,100426.55
2019-06-20T03:25:06.677Z,100425.20
2019-06-20T03:27:35.072Z,100426.55
2019-06-20T03:30:05.231Z,100422.69
2019-06-20T03:32:40.802Z,100423.27
2019-06-20T03:35:09.193Z,100418.80
2019-06-20T03:37:37.726Z,100421.34
2019-06-20T03:40:07.359Z,100419.01
2019-06-20T03:42:35.794Z,100427.41
2019-06-20T03:45:09.898Z,100414.54
2019-06-20T03:47:38.297Z,100421.36
2019-06-20T03:50:08.534Z,100424.66
2019-06-20T03:52:36.960Z,100434.20
2019-06-20T03:55:06.294Z,100430.05
2019-06-20T03:57:37.122Z,100427.50
2019-06-20T04:00:07.491Z,100429.00
2019-06-20T04:02:35.897Z,100431.62
2019-06-20T04:05:05.880Z,100429.76
2019-06-20T04:07:34.279Z,100434.89
2019-06-20T04:10:02.672Z,100426.05
2019-06-20T04:12:31.076Z,100422.83
2019-06-20T04:14:59.488Z,100427.69
2019-06-20T04:17:27.895Z,100422.97
2019-06-20T04:19:56.356Z,100434.28
2019-06-20T04:22:24.743Z,100438.33
2019-06-20T04:24:53.481Z,100445.13
2019-06-20T04:27:21.897Z,100445.50
2019-06-20T04:29:50.290Z,100449.03
2019-06-20T04:32:18.731Z,100454.02
2019-06-20T04:34:47.136Z,100457.05
2019-06-20T04:37:15.532Z,100451.92
2019-06-20T04:39:46.379Z,100447.52
2019-06-20T04:42:18.734Z,100458.28
2019-06-20T04:44:47.394Z,100457.80
2019-06-20T04:47:16.703Z,100457.73
2019-06-20T04:49:45.167Z,100452.80
2019-06-20T04:52:13.579Z,100449.16
2019-06-20T04:54:43.020Z,100449.91
2019-06-20T04:57:11.442Z,100459.96
2019-06-20T04:59:42.227Z,100454.56
2019-06-20T05:02:14.767Z,100455.52
2019-06-20T05:04:44.132Z,100451.31
2019-06-20T05:07:19.845Z,100452.00
2019-06-20T05:09:51.136Z,100459.64
2019-06-20T05:12:19.570Z,100457.35
2019-06-20T05:14:48.018Z,100456.08
2019-06-20T05:17:16.384Z,100465.97
2019-06-20T05:19:44.804Z,100465.89
2019-06-20T05:22:17.052Z,100463.01
2019-06-20T05:24:44.722Z,100465.16
2019-06-20T05:27:13.089Z,100468.03
2019-06-20T05:29:42.485Z,100471.79
2019-06-20T05:32:10.903Z,100472.31
2019-06-20T05:34:39.318Z,100476.29
2019-06-20T05:37:07.726Z,100479.83
2019-06-20T05:39:36.131Z,100482.50
2019-06-20T05:42:04.735Z,100489.65
2019-06-20T05:44:33.216Z,100488.23
2019-06-20T05:47:11.931Z,100486.13
2019-06-20T05:49:31.790Z,100479.50
2019-06-20T05:52:00.196Z,100477.50
2019-06-20T05:54:28.607Z,100481.19
2019-06-20T05:56:57.015Z,100484.87
2019-06-20T05:59:25.768Z,100489.27
2019-06-20T06:01:56.925Z,100502.59
2019-06-20T06:04:29.082Z,100501.61
2019-06-20T06:06:57.586Z,100507.89
2019-06-20T06:09:26.002Z,100515.03
2019-06-20T06:11:54.420Z,100524.62
2019-06-20T06:14:22.837Z,100521.09
2019-06-20T06:16:51.254Z,100525.45
2019-06-20T06:19:19.659Z,100535.78
2019-06-20T06:21:48.063Z,100537.16
2019-06-20T06:24:26.029Z,100533.80
2019-06-20T06:26:47.835Z,100530.88
2019-06-20T06:29:16.237Z,100532.42
2019-06-20T06:31:44.676Z,100533.87
2019-06-20T06:34:14.013Z,100543.69
2019-06-20T06:36:46.269Z,100538.94
2019-06-20T06:39:14.745Z,100538.60
2019-06-20T06:41:44.069Z,100548.70
2019-06-20T06:44:12.506Z,100549.55
2019-06-20T06:46:47.230Z,100554.34
2019-06-20T06:49:11.075Z,100548.06
2019-06-20T06:51:39.559Z,100553.34
2019-06-20T06:54:11.781Z,100553.20
2019-06-20T06:56:39.461Z,100553.91
2019-06-20T06:59:07.992Z,100553.09
2019-06-20T07:01:36.418Z,100557.97
2019-06-20T07:04:08.326Z,100565.71
2019-06-20T07:06:40.565Z,100559.52
2019-06-20T07:09:09.415Z,100557.05
2019-06-20T07:11:38.824Z,100565.31
2019-06-20T07:14:07.368Z,100571.95
2019-06-20T07:16:35.861Z,100568.44
2019-06-20T07:19:04.452Z,100570.89
2019-06-20T07:21:32.957Z,100576.43
2019-06-20T07:24:01.393Z,100577.23
2019-06-20T07:26:29.790Z,100577.55
2019-06-20T07:28:58.218Z,100584.92
2019-06-20T07:31:27.680Z,100587.11
2019-06-20T07:33:56.109Z,100589.58
2019-06-20T07:36:24.689Z,100598.09
2019-06-20T07:38:53.155Z,100596.63
2019-06-20T07:41:21.551Z,100601.20
2019-06-20T07:43:49.990Z,100607.03
2019-06-20T07:46:18.530Z,100603.97
2019-06-20T07:48:46.944Z,100595.44
2019-06-20T07:51:15.376Z,100596.20
2019-06-20T07:53:44.721Z,100598.02
2019-06-20T07:56:13.112Z,100604.29
2019-06-20T07:58:45.383Z,100611.36
2019-06-20T08:01:13.069Z,100608.84
2019-06-20T08:03:45.083Z,100615.66
2019-06-20T08:06:11.578Z,100615.94
2019-06-20T08:08:39.993Z,100624.66
2019-06-20T08:11:08.393Z,100617.80
2019-06-20T08:13:36.818Z,100621.12
2019-06-20T08:16:05.478Z,100629.80
2019-06-20T08:18:37.389Z,100633.53
2019-06-20T08:21:05.838Z,100637.73
2019-06-20T08:23:34.237Z,100633.36
2019-06-20T08:26:02.663Z,100632.12
2019-06-20T08:28:31.087Z,100631.75
2019-06-20T08:31:02.725Z,100631.56
2019-06-20T08:33:31.133Z,100636.95
2019-06-20T08:36:00.504Z,100636.55
2019-06-20T08:38:28.963Z,100637.19
2019-06-20T08:40:58.364Z,100637.03
2019-06-20T08:43:27.076Z,100645.80
2019-06-20T08:45:57.803Z,100642.62
2019-06-20T08:48:25.675Z,100650.22
2019-06-20T08:50:54.133Z,100654.67
2019-06-20T08:53:22.557Z,100657.97
2019-06-20T08:55:50.968Z,100651.20
2019-06-20T08:58:19.376Z,100649.06
2019-06-20T09:00:48.359Z,100648.55
2019-06-20T09:03:16.765Z,100653.58
2019-06-20T09:05:45.175Z,100655.35
2019-06-20T09:08:16.053Z,100662.15
2019-06-20T09:10:44.523Z,100665.41
2019-06-20T09:13:13.505Z,100661.53
2019-06-20T09:15:44.074Z,100661.94
2019-06-20T09:18:14.171Z,100660.11
2019-06-20T09:20:42.861Z,100670.64
2019-06-20T09:23:11.354Z,100667.54
2019-06-20T09:25:40.795Z,100673.59
2019-06-20T09:28:09.286Z,100680.89
2019-06-20T09:30:38.138Z,100678.38
2019-06-20T09:33:07.120Z,100682.19
2019-06-20T09:35:40.843Z,100679.89
2019-06-20T09:38:08.565Z,100685.31
2019-06-20T09:40:37.000Z,100686.09
2019-06-20T09:43:06.073Z,100686.34
2019-06-20T09:45:36.821Z,100691.28
2019-06-20T09:48:05.529Z,100690.27
2019-06-20T09:50:33.963Z,100687.52
2019-06-20T09:53:02.345Z,100686.45
2019-06-20T09:55:30.781Z,100687.60
2019-06-20T09:57:59.217Z,100685.52
2019-06-20T10:00:28.677Z,100686.11
2019-06-20T10:02:57.823Z,100691.05
2019-06-20T10:05:26.838Z,100686.44
2019-06-20T10:07:56.737Z,100684.47
2019-06-20T10:10:30.431Z,100681.16
2019-06-20T10:13:00.183Z,100683.10
2019-06-20T10:15:30.916Z,100697.47
2019-06-20T10:18:06.035Z,100702.19
2019-06-20T10:20:34.639Z,100710.44
2019-06-20T10:23:05.263Z,100711.59
2019-06-20T10:25:36.442Z,100711.00
2019-06-20T10:28:05.320Z,100715.88
2019-06-20T10:30:33.753Z,100718.48
2019-06-20T10:33:02.159Z,100718.99
2019-06-20T10:35:30.587Z,100726.08
2019-06-20T10:38:02.491Z,100728.30
2019-06-20T10:40:30.415Z,100742.52
2019-06-20T10:42:58.846Z,100737.70
2019-06-20T10:45:41.007Z,100733.98
2019-06-20T10:48:09.452Z,100747.28
2019-06-20T10:50:37.857Z,100752.88
2019-06-20T10:53:06.421Z,100745.92
2019-06-20T10:55:34.844Z,100742.61
2019-06-20T10:58:04.295Z,100750.79
2019-06-20T11:00:33.876Z,100742.77
2019-06-20T11:03:02.327Z,100744.56
2019-06-20T11:05:30.733Z,100742.99
2019-06-20T11:07:59.138Z,100742.63
2019-06-20T11:10:28.061Z,100745.43
2019-06-20T11:13:00.315Z,100743.09
2019-06-20T11:15:28.457Z,100751.42
2019-06-20T11:17:57.181Z,100755.48
2019-06-20T11:20:26.949Z,100756.15
2019-06-20T11:22:55.339Z,100758.11
2019-06-20T11:25:23.833Z,100746.05
2019-06-20T11:27:53.640Z,100758.23
2019-06-20T11:30:26.119Z,100752.16
2019-06-20T11:32:58.394Z,100758.49
2019-06-20T11:35:30.513Z,100760.70
2019-06-20T11:37:58.964Z,100757.77
2019-06-20T11:40:30.252Z,100760.48
2019-06-20T11:43:00.379Z,100753.73
2019-06-20T11:45:28.902Z,100757.78
2019-06-20T11:47:57.304Z,100758.87
2019-06-20T11:50:26.083Z,100755.73
2019-06-20T11:52:54.524Z,100756.25
2019-06-20T11:55:23.627Z,100765.73
2019-06-20T11:57:52.022Z,100765.77
2019-06-20T12:00:21.558Z,100768.89
2019-06-20T12:02:50.336Z,100776.83
2019-06-20T12:05:19.264Z,100781.95
2019-06-20T12:07:48.495Z,100777.44
2019-06-20T12:10:18.575Z,100783.67
2019-06-20T12:12:47.081Z,100772.71
2019-06-20T12:15:15.595Z,100767.34
2019-06-20T12:17:49.146Z,100766.73
2019-06-20T12:20:18.321Z,100766.92
2019-06-20T12:22:46.739Z,100770.32
2019-06-20T12:25:18.228Z,100776.34
2019-06-20T12:27:47.780Z,100776.17
2019-06-20T12:30:18.026Z,100777.86
2019-06-20T12:32:46.849Z,100789.67
2019-06-20T12:35:15.876Z,100788.17
2019-06-20T12:37:45.200Z,100791.03
2019-06-20T12:40:15.990Z,100791.03
2019-06-20T12:42:44.921Z,100795.27
2019-06-20T12:45:15.732Z,100794.77
2019-06-20T12:47:44.264Z,100785.03
2019-06-20T12:50:14.379Z,100784.66
2019-06-20T12:52:43.233Z,100788.75
2019-06-20T12:55:13.135Z,100787.28
2019-06-20T12:57:42.290Z,100790.59
2019-06-20T13:00:15.763Z,100790.66
2019-06-20T13:02:43.787Z,100786.63
2019-06-20T13:05:13.350Z,100783.84
2019-06-20T13:07:46.490Z,100788.80
2019-06-20T13:10:15.899Z,100791.07
2019-06-20T13:12:46.963Z,100792.92
2019-06-20T13:15:15.854Z,100794.61
2019-06-20T13:17:45.008Z,100789.42
2019-06-20T13:20:14.503Z,100799.52
2019-06-20T13:22:44.637Z,100800.84
2019-06-20T13:25:14.607Z,100805.75
2019-06-20T13:27:43.444Z,100817.33
2019-06-20T13:30:12.555Z,100815.31
2019-06-20T13:32:45.436Z,100822.36
2019-06-20T13:35:18.883Z,100820.34
2019-06-20T13:37:47.852Z,100825.10
2019-06-20T13:40:18.704Z,100828.63
2019-06-20T13:42:55.677Z,100824.74
2019-06-20T13:45:26.410Z,100817.51
2019-06-20T13:47:54.961Z,100817.52
2019-06-20T13:50:27.277Z,100818.38
2019-06-20T13:52:55.848Z,100818.22
2019-06-20T13:55:24.455Z,100812.39
2019-06-20T13:57:52.993Z,100810.81
2019-06-20T14:00:24.222Z,100812.44
2019-06-20T14:02:53.009Z,100813.13
2019-06-20T14:05:24.552Z,100807.19
2019-06-20T14:07:55.982Z,100809.02
2019-06-20T14:10:25.344Z,100800.42
2019-06-20T14:12:58.191Z,100790.17
2019-06-20T14:15:28.766Z,100789.23
2019-06-20T14:18:01.304Z,100775.50
2019-06-20T14:20:28.488Z,100789.17
2019-06-20T14:22:56.909Z,100784.77
2019-06-20T14:25:34.157Z,100786.55
2019-06-20T14:28:01.554Z,100785.75
2019-06-20T14:30:30.879Z,100787.10
2019-06-20T14:32:59.286Z,100788.22
2019-06-20T14:35:27.840Z,100787.52
2019-06-20T14:37:57.307Z,100790.79
2019-06-20T14:40:25.980Z,100797.66
2019-06-20T14:42:59.658Z,100796.81
2019-06-20T14:45:30.391Z,100790.88
2019-06-20T14:47:58.282Z,100791.14
2019-06-20T14:50:26.701Z,100796.56
2019-06-20T14:52:57.534Z,100803.35
2019-06-20T14:55:25.988Z,100803.69
2019-06-20T14:57:54.949Z,100810.84
2019-06-20T15:00:28.183Z,100808.97
2019-06-20T15:02:58.813Z,100809.19
2019-06-20T15:05:27.356Z,100804.84
2019-06-20T15:07:56.130Z,100818.10
2019-06-20T15:10:24.676Z,100816.60
2019-06-20T15:12:56.012Z,100804.20
2019-06-20T15:15:24.641Z,100809.06
2019-06-20T15:17:57.936Z,100815.03
2019-06-20T15:20:26.486Z,100812.91
2019-06-20T15:22:57.463Z,100812.16
2019-06-20T15:25:25.984Z,100816.55
2019-06-20T15:27:57.066Z,100811.58
2019-06-20T15:30:32.393Z,100808.29
2019-06-20T15:33:10.114Z,100802.80
2019-06-20T15:35:43.102Z,100806.52
2019-06-20T15:38:12.563Z,100809.49
2019-06-20T15:40:43.487Z,100810.97
2019-06-20T15:43:12.059Z,100810.97
2019-06-20T15:45:41.776Z,100801.80
2019-06-20T15:48:11.414Z,100793.17
2019-06-20T15:50:41.068Z,100782.28
2019-06-20T15:53:14.135Z,100786.58
2019-06-20T15:55:46.563Z,100794.20
2019-06-20T15:58:15.011Z,100800.02
2019-06-20T16:00:43.418Z,100800.45
2019-06-20T16:03:14.461Z,100793.23
2019-06-20T16:05:42.205Z,100793.41
2019-06-20T16:08:13.018Z,100812.61
2019-06-20T16:10:45.179Z,100812.12
2019-06-20T16:13:21.590Z,100823.75
2019-06-20T16:15:50.636Z,100815.58
2019-06-20T16:18:19.112Z,100819.58
2019-06-20T16:20:47.533Z,100815.88
2019-06-20T16:23:15.954Z,100807.47
2019-06-20T16:25:44.362Z,100809.78
2019-06-20T16:28:15.186Z,100817.77
2019-06-20T16:30:48.313Z,100814.83
2019-06-20T16:33:24.965Z,100816.31
2019-06-20T16:35:46.948Z,100817.53
2019-06-20T16:38:15.352Z,100808.55
2019-06-20T16:40:46.192Z,100815.92
2019-06-20T16:43:14.755Z,100821.38
2019-06-20T16:45:44.450Z,100818.70
2019-06-20T16:48:13.020Z,100819.99
2019-06-20T16:50:41.614Z,100818.09
2019-06-20T16:53:12.316Z,100819.99
2019-06-20T16:55:43.258Z,100819.27
2019-06-20T16:58:11.745Z,100821.09
2019-06-20T17:00:40.144Z,100810.31
2019-06-20T17:03:08.631Z,100817.05
2019-06-20T17:05:37.084Z,100823.27
2019-06-20T17:08:05.491Z,100826.75
2019-06-20T17:10:37.706Z,100820.91
2019-06-20T17:13:07.180Z,100820.83
2019-06-20T17:15:36.741Z,100821.21
2019-06-20T17:18:07.794Z,100820.16
2019-06-20T17:20:36.417Z,100817.33
2019-06-20T17:23:05.298Z,100816.81
2019-06-20T17:25:34.056Z,100815.30
2019-06-20T17:28:07.064Z,100816.19
2019-06-20T17:30:35.918Z,100813.00
2019-06-20T17:33:04.625Z,100819.19
2019-06-20T17:35:37.113Z,100822.37
2019-06-20T17:38:05.579Z,100821.05
2019-06-20T17:40:34.182Z,100827.91
2019-06-20T17:43:02.619Z,100831.67
2019-06-20T17:45:31.082Z,100825.95
2019-06-20T17:47:59.529Z,100829.80
2019-06-20T17:50:29.028Z,100831.45
2019-06-20T17:52:57.386Z,100832.77
2019-06-20T17:55:28.515Z,100841.88
2019-06-20T17:58:02.687Z,100833.09
2019-06-20T18:00:31.195Z,100831.98
2019-06-20T18:03:04.833Z,100830.62
2019-06-20T18:05:40.503Z,100834.97
2019-06-20T18:08:15.428Z,100836.81
2019-06-20T18:10:45.724Z,100839.98
2019-06-20T18:13:13.706Z,100836.81
2019-06-20T18:15:51.934Z,100839.92
2019-06-20T18:18:23.289Z,100839.81
2019-06-20T18:20:54.625Z,100843.52
2019-06-20T18:23:32.243Z,100845.58
2019-06-20T18:26:05.635Z,100846.83
2019-06-20T18:28:34.023Z,100841.33
2019-06-20T18:31:02.868Z,100849.44
2019-06-20T18:33:34.630Z,100853.34
2019-06-20T18:36:04.013Z,100859.36
2019-06-20T18:38:35.890Z,100862.41
2019-06-20T18:41:21.872Z,100868.38
2019-06-20T18:43:50.289Z,100870.79
2019-06-20T18:46:18.719Z,100878.83
2019-06-20T18:48:47.118Z,100872.55
2019-06-20T18:51:15.563Z,100877.41
2019-06-20T18:53:44.012Z,100872.75
2019-06-20T18:56:12.416Z,100878.62
2019-06-20T18:58:40.851Z,100876.42
2019-06-20T19:01:10.260Z,100887.78
2019-06-20T19:03:38.813Z,100883.97
2019-06-20T19:06:07.256Z,100884.58
2019-06-20T19:08:35.993Z,100882.27
2019-06-20T19:11:04.467Z,100884.77
2019-06-20T19:13:32.895Z,100884.91
2019-06-20T19:16:05.060Z,100889.08
2019-06-20T19:18:33.489Z,100888.61
2019-06-20T19:21:04.281Z,100900.19
2019-06-20T19:23:36.236Z,100893.44
2019-06-20T19:26:08.169Z,100894.72
2019-06-20T19:28:37.251Z,100903.95
2019-06-20T19:31:05.767Z,100904.46
2019-06-20T19:33:37.986Z,100914.08
2019-06-20T19:36:05.644Z,100916.17
2019-06-20T19:38:38.798Z,100911.44
2019-06-20T19:41:07.199Z,100923.05
2019-06-20T19:43:35.600Z,100925.26
2019-06-20T19:46:07.129Z,100933.34
2019-06-20T19:48:36.882Z,100940.37
2019-06-20T19:51:05.595Z,100941.91
2019-06-20T19:53:34.159Z,100947.99
2019-06-20T19:56:03.062Z,100950.81
2019-06-20T19:58:31.626Z,100956.01
2019-06-20T20:01:00.065Z,100939.98
2019-06-20T20:03:28.547Z,100945.84
2019-06-20T20:06:00.750Z,100948.69
2019-06-20T20:08:29.626Z,100944.72
2019-06-20T20:10:58.046Z,100938.75
2019-06-20T20:13:26.491Z,100937.12
2019-06-20T20:15:57.316Z,100946.79
2019-06-20T20:18:25.027Z,100950.30
2019-06-20T20:20:53.452Z,100945.72
2019-06-20T20:23:21.863Z,100949.65
2019-06-20T20:25:50.258Z,100951.73
2019-06-20T20:28:18.689Z,100955.45
2019-06-20T20:30:47.460Z,100963.80
2019-06-20T20:33:22.302Z,100970.84
2019-06-20T20:35:55.290Z,100971.39
2019-06-20T20:38:23.704Z,100967.08
2019-06-20T20:40:52.138Z,100970.66
2019-06-20T20:43:24.183Z,100980.30
2019-06-20T20:45:52.598Z,100990.20
2019-06-20T20:48:21.029Z,100996.29
2019-06-20T20:50:49.450Z,101000.44
2019-06-20T20:53:17.865Z,100994.30
2019-06-20T20:55:46.289Z,100996.24
2019-06-20T20:58:14.689Z,101001.95
2019-06-20T21:00:55.142Z,101003.23
2019-06-20T21:03:23.545Z,101008.56
2019-06-20T21:05:52.082Z,101012.95
2019-06-20T21:08:22.936Z,101011.47
2019-06-20T21:10:55.312Z,101022.48
2019-06-20T21:13:23.839Z,101020.97
2019-06-20T21:15:53.434Z,101019.63
2019-06-20T21:18:21.817Z,101024.80
2019-06-20T21:20:50.313Z,101035.27
2019-06-20T21:23:18.727Z,101039.86
2019-06-20T21:25:47.129Z,101046.40
2019-06-20T21:28:15.563Z,101048.36
2019-06-20T21:30:43.961Z,101053.73
2019-06-20T21:33:13.675Z,101051.68
2019-06-20T21:36:07.782Z,101036.02
2019-06-20T21:38:22.151Z,101037.06
2019-06-20T21:42:03.559Z,101045.69
2019-06-20T21:43:29.454Z,101055.13
2019-06-20T21:45:57.921Z,101062.49
2019-06-20T21:48:32.042Z,101066.75
2019-06-20T21:51:00.455Z,101063.47
2019-06-20T21:53:28.863Z,101068.44
2019-06-20T21:55:57.350Z,101077.56
2019-06-20T21:58:26.835Z,101077.58
2019-06-20T22:00:58.430Z,101074.02
2019-06-20T22:03:31.966Z,101066.34
2019-06-20T22:06:02.835Z,101071.55
2019-06-20T22:08:31.336Z,101068.45
2019-06-20T22:11:03.897Z,101076.00
2019-06-20T22:13:32.295Z,101082.73
2019-06-20T22:16:00.776Z,101082.64
2019-06-20T22:18:29.185Z,101087.38
2019-06-20T22:20:57.590Z,101082.11
2019-06-20T22:23:26.004Z,101078.38
2019-06-20T22:25:54.405Z,101077.25
2019-06-20T22:28:22.908Z,101082.83
2019-06-20T22:30:55.179Z,101085.13
2019-06-20T22:33:23.591Z,101090.62
2019-06-20T22:35:52.032Z,101093.82
2019-06-20T22:38:20.447Z,101097.53
2019-06-20T22:40:48.951Z,101102.69
2019-06-20T22:43:17.578Z,101108.89
2019-06-20T22:45:46.414Z,101104.31
2019-06-20T22:48:14.990Z,101113.73
2019-06-20T22:50:43.491Z,101114.77
2019-06-20T22:53:12.084Z,101116.31
2019-06-20T22:55:40.485Z,101119.54
2019-06-20T22:58:09.174Z,101117.05
2019-06-20T23:00:41.834Z,101118.72
2019-06-20T23:03:10.241Z,101123.38
2019-06-20T23:05:38.682Z,101122.67
2019-06-20T23:08:07.077Z,101116.36
2019-06-20T23:10:35.588Z,101115.63
2019-06-20T23:13:04.109Z,101119.03
2019-06-20T23:15:33.619Z,101120.80
2019-06-20T23:18:02.077Z,101122.31
2019-06-20T23:20:31.414Z,101132.02
2019-06-20T23:22:59.830Z,101127.87
2019-06-20T23:25:28.411Z,101136.01
2019-06-20T23:27:56.843Z,101129.92
2019-06-20T23:30:25.787Z,101125.18
2019-06-20T23:32:54.192Z,101133.99
2019-06-20T23:35:22.604Z,101136.89
2019-06-20T23:37:51.026Z,101133.39
2019-06-20T23:40:19.769Z,101138.06
2019-06-20T23:42:48.204Z,101148.92
2019-06-20T23:45:16.883Z,101151.69
2019-06-20T23:47:45.297Z,101153.42
2019-06-20T23:50:21.205Z,101142.24
2019-06-20T23:52:55.048Z,101132.68
2019-06-20T23:55:23.454Z,101135.27
2019-06-20T23:57:51.844Z,101136.22
